Startpagina
METAR-TAF:

METAR-TAF

Vliegvelden :

Tsjoengking, China

Internationale luchthaven Chongqing Jiangbei

breedte: 29-31N, lengte: 106-29E, hoogte: 351 m

Actueel weer

Dit bericht is 17 minuten geleden gemaakt, om 23:00 UTC
Wind 6 kt uit het westen, variërend tussen het zuidwesten en het noordnoordwesten
Temperatuur 19°C
Vochtigheid 68%
Druk 1012 hPa
Zicht 10 km of meer
Verspreide wolken op 5000 ft

METAR: ZUCK 222300Z 27003MPS 230V340 9999 SCT050 19/13 Q1012 NOSIG

Tijdstip: 07:17 (23:17 UTC)

Verwachting

Dit bericht is 8 uur en het 14 minuten geleden gemaakt, om 15:03 UTC
Verwachting geldig van 22 om 18 UTC tot 23 om 18 UTC
Wind 6 kt uit het noordnoordwesten
Zicht: 5000 m
Verspreide wolken op 1000 ft
Geheel bewolkt op 4000 ft
nevel
Tijdelijke
van 23 om 12 UTC tot 23 om 18 UTC
Zicht: 3500 m
Weinig wolken op 300 ft
Verspreide wolken op 1000 ft
Geheel bewolkt op 4000 ft
lichte regen, nevel

TAF: ZUCK 221503Z 2218/2318 33003MPS 5000 BR SCT010 OVC040 TX24/2307Z TN19/2222Z TEMPO 2312/2318 3500 -RA BR FEW003 SCT010 OVC040

Waarnemingen en weersverwachtingen van meer dan 4000 vliegvelden (METAR en TAF).

De beschikbare stations zijn de gele en rode punten op de kaart.

Ga met uw muis naar het station om de naam te zien.

Klik dan om waarnemingen en weersverwachtingen te zien.

kaart wijzigen: klik op de groene knoppen met een zwart kruis om in te zoomen, op de groene knop met een streepje om uit te zoomen of op de groene pijlen voor aangrenzende kaarten.


METAR-TAF: